Hauptseite
METAR-TAF:

METAR-TAF

Flughäfen :

Flughafen Sarajevo

Sarajevo, Bosnien und Herzegowina

Breite: 43-49N, Länge: 018-20E, Höhe: 511 m

Beobachtung

Neuester Wetterbericht von vor 19 Minuten, um 10:00 UTC
Wind 5 kt aus unterschiedlichen Richtungen
Temperatur 18°C
Luftfeuchtigkeit 68%
Luftdruck 1031 hPa
Sichtweite 10 km oder mehr
Aufgelockert bewölkt in der Höhe von 5000 ft

METAR: LQSA 121000Z VRB05KT 9999 SCT050 18/12 Q1031 NOSIG

Zeit: 12:19 (10:19 UTC)

Prognose

Neuester Wetterbericht von vor 5 Stunden und 19 Minuten, um 05:00 UTC
Gültige Prognose vom 12 um 06 UTC bis 13 um 06 UTC
Wind 6 kt aus Nordwest
Sichtweite 10 km oder mehr
Aufgelockert bewölkt in der Höhe von 4000 ft
Wahrscheinlichkeit 30% :
Zeitweise
vom 12 um 10 UTC bis 12 um 17 UTC
Wind 12 kt aus Nord/Nordost

TAF: LQSA 120500Z 1206/1306 32006KT 9999 SCT040 TX24/1214Z TN11/1206Z PROB30 TEMPO 1210/1217 02012KT

Wetterbeobachtungen und Prognosen von mehr als 4000 Flughäfen (METAR und TAF Bericht).

Die verfügbaren Stationen werden durch gelbe und rote Markierungen auf der Karte dargestellt.

Führen Sie die Maus auf sie, um den Namen der Station zu sehen.

Darauf klicken, um die Beobachtung von Wetterbeobachtungen und Prognosen zu sehen.

Um die Karte zu ändern : klicken Sie auf den grünen Tasten mit einem schwarzen Kreuz Zum Vergrößern, auf den grünen Button mit einem Gedankenstrich zu verkleinern, oder auf die grünen Pfeile für benachbarte Karten.


METAR-TAF: